Terminal Aerodrome Forecast
Issued by NWS Louisville, KY

Home | Current Version | Previous Version | Graphics & Text | Print | Product List | Glossary On
Versions: 1 2 3 4 5 6 7 8 9 10 11 12 13 14 15
000
FTUS43 KLMK 011049 AAB
TAFBWG
TAF AMD
KBWG 011049Z 0111/0206 00000KT 4SM BR SKC
      TEMPO 0111/0112 2SM BR SKC
     FM011300 VRB04KT P6SM SCT250=

USA.gov is the U.S. government's official web portal to all federal, state and local government web resources and services.